createdAt,value
2019-02-22T00:02:38.181Z,99.90
2019-02-22T00:05:06.964Z,99.90
2019-02-22T00:07:35.589Z,99.90
2019-02-22T00:10:04.708Z,99.90
2019-02-22T00:12:32.857Z,99.90
2019-02-22T00:15:00.958Z,99.90
2019-02-22T00:17:29.266Z,99.90
2019-02-22T00:19:57.369Z,99.90
2019-02-22T00:22:25.529Z,99.90
2019-02-22T00:24:53.766Z,99.90
2019-02-22T00:27:22.341Z,99.90
2019-02-22T00:29:50.530Z,99.90
2019-02-22T00:32:19.076Z,99.90
2019-02-22T00:34:47.318Z,99.90
2019-02-22T00:37:15.642Z,99.90
2019-02-22T00:39:43.745Z,99.90
2019-02-22T00:42:11.983Z,99.90
2019-02-22T00:44:40.092Z,99.90
2019-02-22T00:47:08.242Z,99.90
2019-02-22T00:49:36.435Z,99.90
2019-02-22T00:52:04.709Z,99.90
2019-02-22T00:54:32.871Z,99.90
2019-02-22T00:57:01.535Z,99.90
2019-02-22T00:59:29.726Z,99.90
2019-02-22T01:01:57.974Z,99.90
2019-02-22T01:04:26.107Z,99.90
2019-02-22T01:06:54.367Z,99.90
2019-02-22T01:09:22.919Z,99.90
2019-02-22T01:11:51.215Z,99.90
2019-02-22T01:14:19.725Z,99.90
2019-02-22T01:16:47.886Z,99.90
2019-02-22T01:19:15.985Z,99.90
2019-02-22T01:21:44.252Z,99.90
2019-02-22T01:24:12.356Z,99.90
2019-02-22T01:26:41.011Z,99.90
2019-02-22T01:29:09.123Z,99.90
2019-02-22T01:31:37.293Z,99.90
2019-02-22T01:34:05.390Z,99.90
2019-02-22T01:36:33.579Z,99.90
2019-02-22T01:39:01.710Z,99.90
2019-02-22T01:41:30.274Z,99.90
2019-02-22T01:43:58.381Z,99.90
2019-02-22T01:46:26.615Z,99.90
2019-02-22T01:48:54.715Z,99.90
2019-02-22T01:51:23.397Z,99.90
2019-02-22T01:53:53.894Z,99.90
2019-02-22T01:56:21.440Z,99.90
2019-02-22T01:58:49.587Z,99.90
2019-02-22T02:01:17.684Z,99.90
2019-02-22T02:03:45.834Z,99.90
2019-02-22T02:06:13.999Z,99.90
2019-02-22T02:08:42.151Z,99.90
2019-02-22T02:11:10.461Z,99.90
2019-02-22T02:13:38.728Z,99.90
2019-02-22T02:16:06.938Z,99.90
2019-02-22T02:18:35.214Z,99.90
2019-02-22T02:21:03.313Z,99.90
2019-02-22T02:23:31.562Z,99.90
2019-02-22T02:26:00.219Z,99.90
2019-02-22T02:28:28.381Z,99.90
2019-02-22T02:30:56.711Z,99.90
2019-02-22T02:33:24.846Z,99.90
2019-02-22T02:35:52.977Z,99.90
2019-02-22T02:38:21.116Z,99.90
2019-02-22T02:40:49.214Z,99.90
2019-02-22T02:43:17.379Z,99.90
2019-02-22T02:45:45.476Z,99.90
2019-02-22T02:48:13.626Z,99.90
2019-02-22T02:50:41.730Z,99.90
2019-02-22T02:53:10.005Z,99.90
2019-02-22T02:55:38.729Z,99.90
2019-02-22T02:58:07.372Z,99.90
2019-02-22T03:00:35.667Z,99.90
2019-02-22T03:03:04.087Z,99.90
2019-02-22T03:06:00.610Z,99.90
2019-02-22T03:08:32.790Z,99.90
2019-02-22T03:11:00.935Z,99.90
2019-02-22T03:13:29.105Z,99.90
2019-02-22T03:15:57.607Z,99.90
2019-02-22T03:18:25.767Z,99.90
2019-02-22T03:20:54.239Z,99.90
2019-02-22T03:23:22.410Z,99.90
2019-02-22T03:25:50.524Z,99.90
2019-02-22T03:28:18.669Z,99.90
2019-02-22T03:30:46.798Z,99.90
2019-02-22T03:33:14.955Z,99.90
2019-02-22T03:35:43.138Z,99.90
2019-02-22T03:38:11.290Z,99.90
2019-02-22T03:40:39.414Z,99.90
2019-02-22T03:43:07.571Z,99.90
2019-02-22T03:45:35.684Z,99.90
2019-02-22T03:48:03.962Z,99.90
2019-02-22T03:50:32.274Z,99.90
2019-02-22T03:53:06.799Z,99.90
2019-02-22T03:55:35.095Z,99.90
2019-02-22T03:58:03.464Z,99.90
2019-02-22T04:00:31.605Z,99.90
2019-02-22T04:03:00.067Z,99.90
2019-02-22T04:05:28.225Z,99.90
2019-02-22T04:07:57.140Z,99.90
2019-02-22T04:10:25.398Z,99.90
2019-02-22T04:12:53.499Z,99.90
2019-02-22T04:15:21.989Z,99.90
2019-02-22T04:17:50.180Z,99.90
2019-02-22T04:20:18.357Z,99.90
2019-02-22T04:22:46.470Z,99.90
2019-02-22T04:25:14.609Z,99.90
2019-02-22T04:27:43.067Z,99.90
2019-02-22T04:30:11.438Z,99.90
2019-02-22T04:32:39.526Z,99.90
2019-02-22T04:35:07.880Z,99.90
2019-02-22T04:37:35.982Z,99.90
2019-02-22T04:40:04.863Z,99.90
2019-02-22T04:42:33.094Z,99.90
2019-02-22T04:45:01.276Z,99.90
2019-02-22T04:47:29.458Z,99.90
2019-02-22T04:49:57.632Z,99.90
2019-02-22T04:52:25.781Z,99.90
2019-02-22T04:54:53.918Z,99.90
2019-02-22T04:57:22.071Z,99.90
2019-02-22T04:59:50.220Z,99.90
2019-02-22T05:02:18.456Z,99.90
2019-02-22T05:04:47.039Z,99.90
2019-02-22T05:07:15.130Z,99.90
2019-02-22T05:09:43.295Z,99.90
2019-02-22T05:12:11.733Z,99.90
2019-02-22T05:14:39.911Z,99.90
2019-02-22T05:17:07.989Z,99.90
2019-02-22T05:19:36.125Z,99.90
2019-02-22T05:22:04.205Z,99.90
2019-02-22T05:24:32.337Z,99.90
2019-02-22T05:27:00.587Z,99.90
2019-02-22T05:29:29.072Z,99.90
2019-02-22T05:31:57.158Z,99.90
2019-02-22T05:34:25.699Z,99.90
2019-02-22T05:36:54.211Z,99.90
2019-02-22T05:39:22.301Z,99.90
2019-02-22T05:41:50.537Z,99.90
2019-02-22T05:44:19.304Z,99.90
2019-02-22T05:46:57.465Z,99.90
2019-02-22T05:49:17.385Z,99.90
2019-02-22T05:51:45.523Z,99.90
2019-02-22T05:54:13.638Z,99.90
2019-02-22T05:56:41.855Z,99.90
2019-02-22T05:59:09.943Z,99.90
2019-02-22T06:01:38.099Z,99.90
2019-02-22T06:04:06.190Z,99.90
2019-02-22T06:06:34.329Z,99.90
2019-02-22T06:09:04.322Z,99.90
2019-02-22T06:11:32.463Z,99.90
2019-02-22T06:14:00.539Z,99.90
2019-02-22T06:16:28.673Z,99.90
2019-02-22T06:18:56.851Z,99.90
2019-02-22T06:21:24.994Z,99.90
2019-02-22T06:23:53.078Z,99.90
2019-02-22T06:26:21.219Z,99.90
2019-02-22T06:28:49.301Z,99.90
2019-02-22T06:31:17.446Z,99.90
2019-02-22T06:33:45.535Z,99.90
2019-02-22T06:36:13.674Z,99.90
2019-02-22T06:38:42.118Z,99.90
2019-02-22T06:41:10.260Z,99.90
2019-02-22T06:43:38.405Z,99.90
2019-02-22T06:46:06.530Z,99.90
2019-02-22T06:48:34.614Z,99.90
2019-02-22T06:51:02.793Z,99.90
2019-02-22T06:53:30.954Z,99.90
2019-02-22T06:55:59.189Z,99.90
2019-02-22T06:58:27.683Z,99.90
2019-02-22T07:00:55.819Z,99.90
2019-02-22T07:03:23.904Z,99.90
2019-02-22T07:05:52.670Z,99.90
2019-02-22T07:08:20.770Z,99.90
2019-02-22T07:11:10.658Z,99.90
2019-02-22T07:13:38.758Z,99.90
2019-02-22T07:16:06.897Z,99.90
2019-02-22T07:18:35.098Z,99.90
2019-02-22T07:21:03.447Z,99.90
2019-02-22T07:23:31.937Z,99.90
2019-02-22T07:26:00.190Z,99.90
2019-02-22T07:28:28.290Z,99.90
2019-02-22T07:30:56.525Z,99.90
2019-02-22T07:33:25.110Z,99.90
2019-02-22T07:35:53.669Z,99.90
2019-02-22T07:38:21.799Z,99.90
2019-02-22T07:40:49.886Z,99.90
2019-02-22T07:43:18.036Z,99.50
2019-02-22T07:45:46.135Z,94.70
2019-02-22T07:48:14.279Z,90.20
2019-02-22T07:50:42.462Z,90.60
2019-02-22T07:53:10.597Z,90.00
2019-02-22T07:55:39.102Z,87.20
2019-02-22T07:58:08.753Z,85.30
2019-02-22T08:00:37.674Z,84.30
2019-02-22T08:03:06.291Z,82.10
2019-02-22T08:05:34.382Z,80.20
2019-02-22T08:08:02.527Z,76.40
2019-02-22T08:10:30.653Z,75.90
2019-02-22T08:12:58.911Z,77.00
2019-02-22T08:15:27.479Z,78.60
2019-02-22T08:17:56.020Z,80.30
2019-02-22T08:20:24.231Z,81.50
2019-02-22T08:22:52.384Z,79.00
2019-02-22T08:25:20.500Z,79.00
2019-02-22T08:27:53.747Z,76.70
2019-02-22T08:30:18.692Z,74.00
2019-02-22T08:32:46.855Z,71.70
2019-02-22T08:35:15.623Z,72.20
2019-02-22T08:37:43.781Z,69.60
2019-02-22T08:40:11.893Z,67.20
2019-02-22T08:42:40.050Z,66.50
2019-02-22T08:45:09.641Z,65.40
2019-02-22T08:47:38.171Z,61.90
2019-02-22T08:50:06.787Z,61.20
2019-02-22T08:52:34.947Z,63.20
2019-02-22T08:55:03.694Z,63.70
2019-02-22T08:57:31.919Z,63.60
2019-02-22T09:00:00.100Z,64.40
2019-02-22T09:02:28.954Z,64.20
2019-02-22T09:04:57.043Z,62.70
2019-02-22T09:07:25.190Z,61.50
2019-02-22T09:09:53.303Z,59.30
2019-02-22T09:12:21.475Z,60.10
2019-02-22T09:14:49.567Z,59.70
2019-02-22T09:17:17.714Z,59.60
2019-02-22T09:19:45.811Z,59.60
2019-02-22T09:22:22.480Z,61.10
2019-02-22T09:24:43.846Z,58.90
2019-02-22T09:27:12.007Z,58.90
2019-02-22T09:29:40.159Z,57.40
2019-02-22T09:32:09.223Z,56.70
2019-02-22T09:34:37.315Z,57.10
2019-02-22T09:37:05.621Z,56.70
2019-02-22T09:39:33.780Z,54.70
2019-02-22T09:42:01.875Z,55.00
2019-02-22T09:44:30.036Z,56.70
2019-02-22T09:46:58.151Z,56.10
2019-02-22T09:49:26.726Z,56.10
2019-02-22T09:51:54.937Z,56.30
2019-02-22T09:54:23.075Z,56.00
2019-02-22T09:56:51.277Z,56.50
2019-02-22T09:59:19.480Z,55.10
2019-02-22T10:01:47.580Z,54.50
2019-02-22T10:04:16.078Z,54.60
2019-02-22T10:06:44.188Z,55.80
2019-02-22T10:09:12.335Z,55.40
2019-02-22T10:11:40.432Z,55.70
2019-02-22T10:14:08.595Z,55.40
2019-02-22T10:16:36.703Z,55.00
2019-02-22T10:19:04.959Z,55.00
2019-02-22T10:21:33.446Z,55.90
2019-02-22T10:24:01.658Z,54.40
2019-02-22T10:26:29.745Z,55.00
2019-02-22T10:28:57.923Z,55.30
2019-02-22T10:31:26.118Z,56.20
2019-02-22T10:33:54.262Z,56.40
2019-02-22T10:36:22.575Z,56.50
2019-02-22T10:38:51.136Z,56.60
2019-02-22T10:41:19.576Z,55.30
2019-02-22T10:43:48.062Z,56.40
2019-02-22T10:46:16.428Z,56.40
2019-02-22T10:48:44.585Z,54.50
2019-02-22T10:51:12.679Z,54.10
2019-02-22T10:53:40.943Z,52.70
2019-02-22T10:56:09.045Z,53.00
2019-02-22T10:58:37.259Z,54.00
2019-02-22T11:01:05.618Z,52.80
2019-02-22T11:03:33.783Z,53.50
2019-02-22T11:06:02.241Z,53.10
2019-02-22T11:08:30.386Z,53.50
2019-02-22T11:10:58.498Z,52.30
2019-02-22T11:13:28.263Z,52.80
2019-02-22T11:15:56.858Z,51.80
2019-02-22T11:18:25.031Z,51.70
2019-02-22T11:20:53.182Z,50.10
2019-02-22T11:23:21.284Z,49.80
2019-02-22T11:25:50.109Z,50.60
2019-02-22T11:28:18.320Z,50.70
2019-02-22T11:30:46.570Z,51.20
2019-02-22T11:33:14.678Z,50.10
2019-02-22T11:35:42.819Z,49.50
2019-02-22T11:38:11.267Z,49.50
2019-02-22T11:40:39.415Z,50.00
2019-02-22T11:43:07.622Z,50.10
2019-02-22T11:45:35.775Z,48.80
2019-02-22T11:48:09.059Z,49.50
2019-02-22T11:50:34.398Z,48.90
2019-02-22T11:53:02.590Z,49.60
2019-02-22T11:55:31.166Z,50.20
2019-02-22T11:57:59.864Z,49.60
2019-02-22T12:00:28.486Z,47.60
2019-02-22T12:02:56.590Z,47.30
2019-02-22T12:05:24.851Z,46.70
2019-02-22T12:07:52.951Z,47.90
2019-02-22T12:10:21.517Z,48.00
2019-02-22T12:12:49.722Z,46.70
2019-02-22T12:15:17.912Z,45.50
2019-02-22T12:17:46.024Z,45.90
2019-02-22T12:20:14.273Z,46.70
2019-02-22T12:22:42.367Z,46.90
2019-02-22T12:25:10.631Z,45.50
2019-02-22T12:27:39.214Z,45.40
2019-02-22T12:30:09.751Z,45.20
2019-02-22T12:32:39.556Z,45.00
2019-02-22T12:35:08.259Z,45.80
2019-02-22T12:37:36.457Z,46.00
2019-02-22T12:40:05.984Z,46.00
2019-02-22T12:42:34.579Z,43.70
2019-02-22T12:45:03.623Z,44.20
2019-02-22T12:47:31.967Z,43.90
2019-02-22T12:50:00.223Z,43.90
2019-02-22T12:52:28.470Z,44.40
2019-02-22T12:54:56.625Z,44.50
2019-02-22T12:57:24.805Z,45.20
2019-02-22T12:59:53.137Z,44.30
2019-02-22T13:02:21.248Z,44.60
2019-02-22T13:04:49.753Z,45.30
2019-02-22T13:07:17.864Z,44.50
2019-02-22T13:09:46.071Z,44.80
2019-02-22T13:12:17.103Z,44.20
2019-02-22T13:14:44.202Z,43.50
2019-02-22T13:17:12.289Z,43.90
2019-02-22T13:19:40.400Z,43.00
2019-02-22T13:22:08.555Z,43.20
2019-02-22T13:24:36.750Z,42.40
2019-02-22T13:27:05.104Z,43.30
2019-02-22T13:29:33.195Z,43.10
2019-02-22T13:32:01.695Z,43.60
2019-02-22T13:34:29.801Z,44.40
2019-02-22T13:36:58.146Z,44.20
2019-02-22T13:39:26.609Z,43.30
2019-02-22T13:41:54.862Z,44.10
2019-02-22T13:44:22.972Z,44.10
2019-02-22T13:46:51.211Z,44.00
2019-02-22T13:49:19.307Z,44.50
2019-02-22T13:51:47.459Z,44.70
2019-02-22T13:54:15.930Z,44.40
2019-02-22T13:56:44.083Z,43.60
2019-02-22T13:59:12.344Z,43.30
2019-02-22T14:01:40.554Z,43.80
2019-02-22T14:04:08.646Z,42.80
2019-02-22T14:06:37.175Z,42.90
2019-02-22T14:09:06.171Z,43.10
2019-02-22T14:11:34.315Z,42.50
2019-02-22T14:14:02.532Z,42.60
2019-02-22T14:16:30.665Z,42.70
2019-02-22T14:18:58.782Z,42.90
2019-02-22T14:21:26.948Z,42.80
2019-02-22T14:23:55.050Z,43.30
2019-02-22T14:26:23.203Z,42.70
2019-02-22T14:28:51.299Z,42.40
2019-02-22T14:31:19.459Z,41.90
2019-02-22T14:33:47.565Z,41.30
2019-02-22T14:36:16.395Z,41.80
2019-02-22T14:38:44.674Z,41.70
2019-02-22T14:41:12.882Z,41.60
2019-02-22T14:43:40.997Z,41.00
2019-02-22T14:46:09.157Z,41.20
2019-02-22T14:48:37.373Z,40.90
2019-02-22T14:51:05.723Z,40.50
2019-02-22T14:53:33.827Z,40.80
2019-02-22T14:56:01.971Z,40.20
2019-02-22T14:58:30.127Z,40.30
2019-02-22T15:00:58.374Z,40.30
2019-02-22T15:03:26.526Z,40.90
2019-02-22T15:05:54.734Z,40.90
2019-02-22T15:08:23.320Z,41.20
2019-02-22T15:10:51.415Z,41.70
2019-02-22T15:13:19.674Z,41.80
2019-02-22T15:16:16.190Z,41.40
2019-02-22T15:18:44.386Z,42.20
2019-02-22T15:21:12.888Z,41.60
2019-02-22T15:23:41.048Z,41.00
2019-02-22T15:26:09.527Z,40.70
2019-02-22T15:28:38.246Z,40.40
2019-02-22T15:31:06.547Z,40.70
2019-02-22T15:33:34.698Z,41.10
2019-02-22T15:36:03.522Z,41.10
2019-02-22T15:38:31.680Z,41.00
2019-02-22T15:40:59.798Z,40.60
2019-02-22T15:43:27.943Z,40.90
2019-02-22T15:45:56.030Z,42.00
2019-02-22T15:48:24.283Z,42.30
2019-02-22T15:50:52.399Z,42.30
2019-02-22T15:53:20.608Z,42.60
2019-02-22T15:55:48.914Z,42.70
2019-02-22T15:58:17.059Z,43.20
2019-02-22T16:00:45.717Z,42.80
2019-02-22T16:03:14.022Z,42.50
2019-02-22T16:05:43.520Z,42.50
2019-02-22T16:08:11.699Z,43.00
2019-02-22T16:10:40.007Z,43.50
2019-02-22T16:13:08.643Z,43.40
2019-02-22T16:15:36.962Z,43.30
2019-02-22T16:18:05.099Z,43.40
2019-02-22T16:20:33.310Z,43.80
2019-02-22T16:23:01.474Z,43.70
2019-02-22T16:25:29.574Z,44.00
2019-02-22T16:27:57.728Z,44.10
2019-02-22T16:30:29.317Z,44.40
2019-02-22T16:32:57.658Z,44.70
2019-02-22T16:35:25.847Z,45.00
2019-02-22T16:37:54.449Z,45.30
2019-02-22T16:40:22.635Z,45.30
2019-02-22T16:42:50.791Z,45.10
2019-02-22T16:45:19.355Z,45.50
2019-02-22T16:47:47.607Z,45.60
2019-02-22T16:50:15.955Z,45.80
2019-02-22T16:52:45.269Z,46.00
2019-02-22T16:55:14.257Z,46.20
2019-02-22T16:57:42.790Z,46.40
2019-02-22T17:00:12.542Z,46.50
2019-02-22T17:02:40.635Z,46.50
2019-02-22T17:05:10.490Z,46.40
2019-02-22T17:07:39.058Z,46.20
2019-02-22T17:10:08.583Z,47.10
2019-02-22T17:12:36.675Z,47.40
2019-02-22T17:15:05.090Z,47.60
2019-02-22T17:17:33.199Z,47.60
2019-02-22T17:20:01.360Z,48.90
2019-02-22T17:22:29.576Z,49.60
2019-02-22T17:24:57.738Z,50.30
2019-02-22T17:27:26.282Z,50.80
2019-02-22T17:29:54.434Z,51.30
2019-02-22T17:32:22.538Z,52.00
2019-02-22T17:34:51.074Z,52.80
2019-02-22T17:37:19.178Z,53.60
2019-02-22T17:39:47.334Z,53.90
2019-02-22T17:42:15.443Z,54.30
2019-02-22T17:44:43.642Z,54.70
2019-02-22T17:47:11.759Z,55.10
2019-02-22T17:49:39.928Z,54.70
2019-02-22T17:52:08.036Z,55.10
2019-02-22T17:54:36.197Z,54.20
2019-02-22T17:57:04.307Z,54.00
2019-02-22T17:59:32.446Z,54.00
2019-02-22T18:02:00.706Z,54.40
2019-02-22T18:04:29.253Z,54.60
2019-02-22T18:06:57.706Z,54.80
2019-02-22T18:09:25.850Z,55.40
2019-02-22T18:11:53.959Z,56.20
2019-02-22T18:14:22.570Z,55.70
2019-02-22T18:16:50.666Z,56.40
2019-02-22T18:19:18.923Z,57.00
2019-02-22T18:21:47.125Z,57.40
2019-02-22T18:24:15.620Z,57.40
2019-02-22T18:26:43.723Z,57.80
2019-02-22T18:29:11.874Z,58.10
2019-02-22T18:31:42.278Z,58.80
2019-02-22T18:34:10.446Z,59.20
2019-02-22T18:36:38.648Z,59.30
2019-02-22T18:39:07.142Z,59.80
2019-02-22T18:41:35.347Z,59.60
2019-02-22T18:44:03.602Z,60.90
2019-02-22T18:46:31.711Z,61.20
2019-02-22T18:48:59.806Z,61.50
2019-02-22T18:51:27.953Z,61.70
2019-02-22T18:53:56.054Z,60.30
2019-02-22T18:56:24.218Z,58.70
2019-02-22T18:58:52.374Z,57.40
2019-02-22T19:01:20.532Z,57.10
2019-02-22T19:03:48.626Z,56.60
2019-02-22T19:06:16.771Z,56.50
2019-02-22T19:08:45.321Z,56.70
2019-02-22T19:11:13.826Z,56.90
2019-02-22T19:13:42.287Z,56.60
2019-02-22T19:16:10.538Z,56.90
2019-02-22T19:18:39.038Z,56.60
2019-02-22T19:21:07.274Z,56.80
2019-02-22T19:23:35.787Z,57.30
2019-02-22T19:26:04.049Z,57.70
2019-02-22T19:28:32.267Z,58.00
2019-02-22T19:31:00.426Z,58.10
2019-02-22T19:33:28.670Z,58.50
2019-02-22T19:35:56.822Z,58.90
2019-02-22T19:38:24.921Z,59.30
2019-02-22T19:40:53.183Z,60.40
2019-02-22T19:43:21.279Z,60.80
2019-02-22T19:45:49.423Z,61.10
2019-02-22T19:48:17.527Z,61.20
2019-02-22T19:50:46.046Z,60.00
2019-02-22T19:53:14.159Z,61.00
2019-02-22T19:55:42.314Z,59.80
2019-02-22T19:58:10.414Z,60.60
2019-02-22T20:00:38.572Z,59.70
2019-02-22T20:03:06.733Z,59.30
2019-02-22T20:05:34.879Z,59.10
2019-02-22T20:08:03.111Z,59.30
2019-02-22T20:10:31.375Z,59.00
2019-02-22T20:12:59.480Z,58.50
2019-02-22T20:15:27.737Z,58.30
2019-02-22T20:17:55.842Z,58.10
2019-02-22T20:20:24.007Z,58.20
2019-02-22T20:22:52.112Z,58.00
2019-02-22T20:25:20.465Z,57.80
2019-02-22T20:27:48.567Z,57.70
2019-02-22T20:30:16.971Z,57.80
2019-02-22T20:32:45.070Z,58.00
2019-02-22T20:35:15.198Z,58.20
2019-02-22T20:37:51.760Z,58.40
2019-02-22T20:40:13.559Z,58.40
2019-02-22T20:42:42.159Z,58.50
2019-02-22T20:45:10.558Z,58.50
2019-02-22T20:47:38.714Z,58.60
2019-02-22T20:50:07.911Z,58.70
2019-02-22T20:52:36.062Z,58.70
2019-02-22T20:55:04.390Z,58.90
2019-02-22T20:57:34.851Z,59.10
2019-02-22T21:00:03.117Z,59.10
2019-02-22T21:02:31.381Z,59.30
2019-02-22T21:04:59.547Z,59.60
2019-02-22T21:07:27.702Z,59.70
2019-02-22T21:09:55.910Z,59.90
2019-02-22T21:12:24.236Z,60.20
2019-02-22T21:14:52.450Z,60.30
2019-02-22T21:17:20.593Z,60.30
2019-02-22T21:19:48.710Z,60.50
2019-02-22T21:22:16.871Z,60.80
2019-02-22T21:24:45.025Z,60.90
2019-02-22T21:27:13.186Z,61.30
2019-02-22T21:29:41.283Z,61.60
2019-02-22T21:32:09.873Z,61.70
2019-02-22T21:34:37.973Z,61.80
2019-02-22T21:37:06.399Z,61.90
2019-02-22T21:39:34.507Z,62.00
2019-02-22T21:42:02.703Z,62.00
2019-02-22T21:44:30.851Z,62.10
2019-02-22T21:46:59.003Z,62.20
2019-02-22T21:49:27.111Z,62.50
2019-02-22T21:51:55.410Z,62.70
2019-02-22T21:54:23.507Z,62.70
2019-02-22T21:56:51.779Z,62.80
2019-02-22T21:59:20.006Z,63.10
2019-02-22T22:01:48.207Z,63.10
2019-02-22T22:04:17.700Z,63.00
2019-02-22T22:06:45.854Z,63.10
2019-02-22T22:09:13.986Z,63.30
2019-02-22T22:11:42.140Z,63.20
2019-02-22T22:14:11.261Z,63.70
2019-02-22T22:16:39.558Z,63.50
2019-02-22T22:19:07.671Z,63.80
2019-02-22T22:21:35.840Z,64.10
2019-02-22T22:24:04.162Z,64.10
2019-02-22T22:26:32.319Z,64.20
2019-02-22T22:29:00.451Z,64.40
2019-02-22T22:31:28.560Z,64.40
2019-02-22T22:33:56.717Z,64.40
2019-02-22T22:36:24.930Z,64.40
2019-02-22T22:38:54.929Z,64.60
2019-02-22T22:41:22.999Z,64.90
2019-02-22T22:43:51.275Z,64.90
2019-02-22T22:46:19.583Z,64.70
2019-02-22T22:48:50.716Z,64.90
2019-02-22T22:51:17.871Z,64.80
2019-02-22T22:53:46.043Z,65.40
2019-02-22T22:56:14.239Z,65.60
2019-02-22T22:58:42.388Z,65.80
2019-02-22T23:01:20.178Z,65.90
2019-02-22T23:03:48.601Z,66.30
2019-02-22T23:06:17.431Z,66.70
2019-02-22T23:08:45.973Z,67.00
2019-02-22T23:11:14.095Z,67.10
2019-02-22T23:13:42.518Z,67.50
2019-02-22T23:16:10.622Z,68.10
2019-02-22T23:18:38.880Z,68.20
2019-02-22T23:21:07.490Z,68.80
2019-02-22T23:23:35.764Z,69.40
2019-02-22T23:26:04.069Z,69.80
2019-02-22T23:28:32.214Z,69.80
2019-02-22T23:31:00.794Z,69.70
2019-02-22T23:33:29.493Z,69.70
2019-02-22T23:36:00.114Z,69.40
2019-02-22T23:38:27.752Z,69.30
2019-02-22T23:40:55.846Z,69.10
2019-02-22T23:43:24.122Z,69.00
2019-02-22T23:45:52.378Z,68.90
2019-02-22T23:48:21.106Z,68.80
2019-02-22T23:50:49.202Z,68.90
2019-02-22T23:53:17.354Z,68.90
2019-02-22T23:55:45.583Z,68.70
2019-02-22T23:58:13.745Z,68.60
